Time;durP1;ratioP1;P1;durP2;ratioP2;P2;SDS_P1;SDS_P2;PMS_P1;PMS_P2;Temp;Humidity;BMP_temperature;BMP_pressure;BME280_temperature;BME280_humidity;BME280_pressure;Samples;Min_cycle;Max_cycle;Signal;HPM_P1;HPM_P2
2021/11/08 00:03:13;;;;;;;13.88;5.32;;;;;;;4.40;83.74;100656.13;8690190;33;20283;-76
2021/11/08 00:08:17;;;;;;;12.07;5.53;;;;;;;4.56;83.15;100658.00;8690779;33;20283;-76
2021/11/08 00:13:20;;;;;;;9.10;4.40;;;;;;;4.49;82.79;100665.44;8720113;33;20834;-75
2021/11/08 00:18:30;;;;;;;10.93;4.60;;;;;;;4.32;83.97;100654.81;8744886;33;21027;-74
2021/11/08 00:23:33;;;;;;;14.60;4.45;;;;;;;4.35;83.42;100670.59;8711648;33;20255;-76
2021/11/08 00:28:36;;;;;;;19.30;6.32;;;;;;;4.35;83.74;100670.59;8721186;33;20243;-76
2021/11/08 00:33:41;;;;;;;11.93;4.47;;;;;;;4.46;83.27;100662.09;8718938;33;20259;-74
2021/11/08 00:38:44;;;;;;;13.50;4.93;;;;;;;4.56;82.88;100671.31;8720391;33;20219;-75
2021/11/08 00:43:47;;;;;;;17.77;5.72;;;;;;;4.63;82.81;100675.38;8720181;33;20175;-76
2021/11/08 00:48:52;;;;;;;8.82;4.35;;;;;;;4.48;82.55;100685.00;8722545;33;20187;-77
2021/11/08 00:53:55;;;;;;;16.08;5.57;;;;;;;4.49;82.79;100684.06;8695353;33;21066;-77
2021/11/08 00:58:58;;;;;;;13.05;5.05;;;;;;;4.66;82.31;100685.00;8719588;33;20159;-76
2021/11/08 01:04:03;;;;;;;17.52;4.97;;;;;;;4.46;82.94;100686.88;8693629;33;20267;-76
2021/11/08 01:09:06;;;;;;;14.93;4.95;;;;;;;4.42;82.59;100692.44;8718720;33;20453;-76
2021/11/08 01:14:09;;;;;;;16.17;4.63;;;;;;;4.30;82.83;100704.53;8718203;33;21784;-77
2021/11/08 01:19:14;;;;;;;15.52;5.28;;;;;;;4.09;84.21;100706.50;8717717;33;20179;-77
2021/11/08 01:24:18;;;;;;;14.30;5.57;;;;;;;4.30;83.26;100717.84;8717344;33;20236;-76
2021/11/08 01:29:21;;;;;;;15.65;5.47;;;;;;;4.36;82.34;100717.53;8718650;33;20151;-77
2021/11/08 01:34:26;;;;;;;17.15;5.38;;;;;;;4.11;83.83;100732.06;8717064;33;20183;-77
2021/11/08 01:39:33;;;;;;;19.13;5.65;;;;;;;4.51;82.50;100726.56;8718004;33;20279;-76
2021/11/08 01:44:37;;;;;;;15.60;4.82;;;;;;;4.28;83.21;100738.31;8692638;33;20459;-76
2021/11/08 01:49:42;;;;;;;20.33;6.22;;;;;;;4.12;83.76;100744.41;8693407;33;20290;-77
2021/11/08 01:54:45;;;;;;;17.02;5.47;;;;;;;4.39;82.63;100752.84;8717576;33;20253;-77
2021/11/08 01:59:48;;;;;;;16.73;5.57;;;;;;;4.42;82.56;100751.84;8716925;33;20175;-75
2021/11/08 02:04:53;;;;;;;13.95;5.22;;;;;;;4.50;82.16;100738.13;8692914;33;20137;-76
2021/11/08 02:09:57;;;;;;;7.72;4.18;;;;;;;4.36;82.78;100733.50;8717389;33;20140;-76
2021/11/08 02:15:00;;;;;;;12.88;6.10;;;;;;;4.45;82.53;100740.19;8716419;33;20205;-77
2021/11/08 02:20:15;;;;;;;10.93;4.78;;;;;;;4.25;83.67;100751.78;8716901;33;20452;-77
2021/11/08 02:25:20;;;;;;;12.57;4.80;;;;;;;4.59;82.05;100748.31;8691236;33;20182;-77
2021/11/08 02:30:27;;;;;;;13.77;5.75;;;;;;;4.57;81.88;100759.03;8717625;33;20602;-77
2021/11/08 02:35:32;;;;;;;11.65;4.40;;;;;;;4.39;82.51;100765.28;8716267;33;20188;-77
2021/11/08 02:40:35;;;;;;;19.95;5.28;;;;;;;4.79;81.40;100768.59;8715855;33;20602;-76
2021/11/08 02:45:38;;;;;;;12.95;4.57;;;;;;;4.79;81.58;100772.13;8716483;33;20259;-77
2021/11/08 02:50:43;;;;;;;13.75;4.57;;;;;;;4.57;82.81;100760.84;8716539;33;20191;-75
2021/11/08 02:55:48;;;;;;;9.63;4.63;;;;;;;4.64;82.84;100761.41;8715746;33;20460;-76
2021/11/08 03:00:54;;;;;;;10.70;4.22;;;;;;;4.71;82.41;100773.44;8690866;33;20765;-77
2021/11/08 03:06:03;;;;;;;11.32;4.15;;;;;;;4.59;82.89;100781.09;8715669;33;21343;-77
2021/11/08 03:11:07;;;;;;;7.85;4.05;;;;;;;4.68;82.61;100778.94;8715964;33;20156;-76
2021/11/08 03:16:19;;;;;;;13.13;2.83;;;;;;;4.87;81.70;100773.53;8715114;33;20201;-76
2021/11/08 03:21:25;;;;;;;11.00;4.22;;;;;;;4.79;81.96;100779.25;8716178;33;20517;-76
2021/11/08 03:26:37;;;;;;;13.77;4.88;;;;;;;4.90;81.75;100774.22;8692074;33;20252;-75
2021/11/08 03:31:42;;;;;;;12.63;4.47;;;;;;;4.90;81.78;100784.88;8697242;33;20224;-76
2021/11/08 03:36:49;;;;;;;11.57;4.18;;;;;;;5.08;81.01;100792.91;8720435;33;20184;-76
2021/11/08 03:41:52;;;;;;;16.35;4.80;;;;;;;5.22;80.22;100790.41;8696317;33;20198;-75
2021/11/08 03:46:56;;;;;;;14.55;4.50;;;;;;;4.88;81.45;100789.41;8719710;33;20187;-76
2021/11/08 03:52:00;;;;;;;8.35;4.65;;;;;;;4.97;81.20;100785.44;8694295;33;20218;-75
2021/11/08 03:57:05;;;;;;;14.07;4.95;;;;;;;4.66;82.34;100796.75;8721141;33;20159;-77
2021/11/08 04:02:09;;;;;;;9.55;4.20;;;;;;;4.87;81.75;100802.81;8723392;33;20164;-77
2021/11/08 04:07:15;;;;;;;15.98;4.47;;;;;;;4.78;81.94;100818.31;8697800;33;20191;-75
2021/11/08 04:12:18;;;;;;;13.68;4.50;;;;;;;4.71;82.24;100822.22;8721273;33;20191;-77
2021/11/08 04:17:25;;;;;;;9.27;4.32;;;;;;;4.61;82.68;100820.97;8720973;33;20269;-76
2021/11/08 04:22:29;;;;;;;11.13;4.85;;;;;;;4.54;82.95;100827.50;8722704;33;20179;-76
2021/11/08 04:27:36;;;;;;;14.65;4.35;;;;;;;4.59;82.92;100825.50;8695998;33;20155;-76
2021/11/08 04:32:48;;;;;;;16.88;5.20;;;;;;;4.63;82.57;100824.38;8722247;33;20179;-77
2021/11/08 04:38:12;;;;;;;11.38;4.10;;;;;;;4.80;81.73;100818.22;8723202;33;20312;-77
2021/11/08 04:43:28;;;;;;;16.65;4.75;;;;;;;4.55;82.42;100830.09;8724570;33;20222;-77
2021/11/08 04:53:54;;;;;;;12.55;4.93;;;;;;;4.35;82.95;100827.53;8713301;33;20191;-76
2021/11/08 05:31:04;;;;;;;18.17;5.88;;;;;;;3.94;85.12;100849.81;8721598;33;20296;-77
2021/11/08 05:36:07;;;;;;;17.08;5.68;;;;;;;4.06;84.66;100850.16;8722110;33;20632;-77
2021/11/08 05:41:11;;;;;;;18.55;6.10;;;;;;;4.05;84.71;100851.97;8699080;33;21325;-77
2021/11/08 05:46:15;;;;;;;18.00;6.18;;;;;;;4.04;84.85;100863.56;8722596;33;20188;-77
2021/11/08 05:51:18;;;;;;;16.08;5.82;;;;;;;3.93;84.97;100860.53;8698278;33;20584;-76
2021/11/08 05:56:29;;;;;;;17.45;6.72;;;;;;;3.88;85.58;100871.38;8721231;33;20229;-77
2021/11/08 06:49:52;;;;;;;20.70;7.90;;;;;;;3.92;86.28;100934.09;8695821;33;20729;-75
2021/11/08 06:54:56;;;;;;;12.98;6.40;;;;;;;3.74;87.67;100948.19;8718996;33;20282;-77
2021/11/08 07:00:01;;;;;;;25.17;8.05;;;;;;;3.91;87.32;100940.31;8717722;33;20190;-76
2021/11/08 07:05:05;;;;;;;23.10;9.10;;;;;;;4.14;86.86;100930.44;8716030;33;20199;-75
2021/11/08 07:10:08;;;;;;;20.52;9.93;;;;;;;4.14;87.18;100947.28;8719267;33;20232;-77
2021/11/08 07:15:13;;;;;;;24.30;8.73;;;;;;;4.10;87.14;100953.66;8720248;33;20616;-76
2021/11/08 07:20:16;;;;;;;21.27;8.63;;;;;;;4.07;87.31;100964.44;8692828;33;20750;-77
2021/11/08 07:25:20;;;;;;;20.05;8.68;;;;;;;4.39;85.95;100960.31;8671852;33;20235;-77
2021/11/08 07:30:25;;;;;;;18.25;9.15;;;;;;;4.56;85.95;100972.00;8741645;33;21023;-77
2021/11/08 07:35:28;;;;;;;22.55;9.63;;;;;;;5.00;84.25;100983.22;8724390;33;20250;-77
2021/11/08 07:40:36;;;;;;;21.20;9.20;;;;;;;5.05;82.79;100977.69;8682047;33;20739;-77
2021/11/08 07:45:40;;;;;;;22.53;9.13;;;;;;;5.16;81.98;100983.34;8721441;33;21029;-77
2021/11/08 07:50:44;;;;;;;18.65;8.98;;;;;;;4.97;82.38;100980.66;8699345;33;20544;-77
2021/11/08 07:55:47;;;;;;;23.58;8.27;;;;;;;5.30;81.44;100995.13;8722168;33;20275;-77
2021/11/08 08:00:52;;;;;;;21.13;9.70;;;;;;;5.73;79.75;100986.69;8721392;33;20381;-78
2021/11/08 08:05:58;;;;;;;16.55;7.10;;;;;;;5.82;78.31;100997.81;8661861;33;20278;-77
2021/11/08 08:11:03;;;;;;;17.83;8.07;;;;;;;6.21;77.54;100992.22;8726315;33;20460;-77
2021/11/08 08:16:12;;;;;;;19.73;8.65;;;;;;;6.22;76.62;101001.91;8723548;33;20925;-78
2021/11/08 08:21:17;;;;;;;15.60;7.93;;;;;;;6.67;75.78;100996.88;8726844;33;20405;-77
2021/11/08 08:26:30;;;;;;;25.87;10.17;;;;;;;6.81;75.46;101010.31;8725348;33;20448;-77
2021/11/08 08:31:37;;;;;;;18.27;9.55;;;;;;;7.23;74.07;101009.72;8720934;33;20409;-78
2021/11/08 08:36:41;;;;;;;21.42;9.27;;;;;;;7.28;73.02;101009.47;8725683;33;20207;-77
2021/11/08 08:41:47;;;;;;;19.25;9.15;;;;;;;7.87;71.51;101021.19;8723846;33;20121;-76
2021/11/08 08:46:53;;;;;;;22.23;10.15;;;;;;;7.38;72.67;101026.72;8664968;33;20197;-77
2021/11/08 08:51:56;;;;;;;20.73;8.95;;;;;;;7.51;71.94;101018.81;8741592;33;20124;-77
2021/11/08 08:57:00;;;;;;;23.48;9.27;;;;;;;7.14;73.25;101037.00;8724992;33;20211;-78
2021/11/08 09:02:08;;;;;;;18.45;8.15;;;;;;;7.42;72.93;101035.41;8699163;33;20214;-77
2021/11/08 09:07:15;;;;;;;19.30;9.27;;;;;;;7.57;72.66;101029.19;8695724;33;20163;-77
2021/11/08 09:12:18;;;;;;;22.17;9.30;;;;;;;7.72;71.33;101044.31;8722274;33;20278;-77
2021/11/08 09:17:22;;;;;;;21.05;9.13;;;;;;;8.64;68.34;101037.94;8685132;33;20696;-77
2021/11/08 09:22:44;;;;;;;18.30;7.22;;;;;;;8.16;70.15;101034.59;8722317;33;20194;-77
2021/11/08 09:27:50;;;;;;;22.25;7.63;;;;;;;7.97;70.86;101056.25;8718529;33;20286;-77
2021/11/08 09:32:55;;;;;;;18.25;7.03;;;;;;;7.16;72.31;101053.81;8720695;33;20192;-77
2021/11/08 09:37:58;;;;;;;17.83;8.00;;;;;;;6.71;74.29;101044.66;8721513;33;20178;-77
2021/11/08 09:43:03;;;;;;;27.65;7.10;;;;;;;7.03;73.37;101036.72;8697732;33;20191;-76
2021/11/08 09:48:10;;;;;;;20.60;9.75;;;;;;;6.94;74.04;101043.44;8694857;33;20428;-76
2021/11/08 09:53:15;;;;;;;15.32;7.78;;;;;;;7.21;72.85;101054.41;8716889;33;20221;-77
2021/11/08 09:58:18;;;;;;;20.08;9.35;;;;;;;7.04;73.73;101049.13;8719146;33;20241;-77
2021/11/08 10:03:29;;;;;;;14.45;7.53;;;;;;;7.13;74.38;101056.66;8718434;33;20187;-77
2021/11/08 10:08:35;;;;;;;21.08;8.30;;;;;;;6.84;74.11;101058.22;8718781;33;20924;-77
2021/11/08 10:13:40;;;;;;;14.27;7.80;;;;;;;6.64;75.13;101045.97;8718042;33;20238;-77
2021/11/08 10:18:48;;;;;;;16.35;7.88;;;;;;;6.91;74.70;101066.78;8717913;33;20191;-76
2021/11/08 10:23:55;;;;;;;17.75;8.27;;;;;;;7.06;74.27;101060.59;8718117;33;20183;-76
2021/11/08 10:29:02;;;;;;;16.08;8.02;;;;;;;7.36;73.06;101058.00;8681371;33;20852;-77
2021/11/08 10:34:11;;;;;;;18.95;7.38;;;;;;;7.25;73.22;101065.78;8716968;33;20194;-77
2021/11/08 10:39:14;;;;;;;20.83;8.75;;;;;;;7.22;73.74;101058.78;8692641;33;20628;-77
2021/11/08 10:44:22;;;;;;;24.17;9.00;;;;;;;7.59;72.83;101053.16;8690936;33;20234;-75
2021/11/08 10:49:38;;;;;;;14.02;7.50;;;;;;;7.10;74.09;101050.59;8682154;33;21061;-76
2021/11/08 10:54:46;;;;;;;21.23;8.05;;;;;;;7.32;73.36;101068.94;8711521;33;21551;-77
2021/11/08 10:59:52;;;;;;;16.17;8.27;;;;;;;7.47;73.16;101054.72;8691631;33;20669;-77
2021/11/08 11:05:02;;;;;;;21.55;8.35;;;;;;;7.61;73.49;101035.22;8717159;33;20206;-77
2021/11/08 11:10:09;;;;;;;18.08;8.13;;;;;;;7.88;72.49;101046.09;8717102;33;20633;-77
2021/11/08 11:15:15;;;;;;;13.80;6.97;;;;;;;8.05;71.92;101050.44;8715577;33;20148;-75
2021/11/08 11:20:22;;;;;;;11.95;6.43;;;;;;;8.29;70.53;101050.78;8716341;33;20193;-74
2021/11/08 11:25:30;;;;;;;16.70;6.47;;;;;;;8.22;71.29;101052.09;8715167;33;20191;-75
2021/11/08 11:30:36;;;;;;;18.38;6.28;;;;;;;8.49;70.09;101046.91;8718461;33;20186;-75
2021/11/08 11:35:45;;;;;;;11.40;4.72;;;;;;;9.03;69.05;101049.75;8717177;33;20201;-74
2021/11/08 11:40:57;;;;;;;11.63;4.30;;;;;;;9.34;66.74;101055.81;8752154;33;21318;-75
2021/11/08 11:46:00;;;;;;;8.85;4.50;;;;;;;9.01;67.48;101051.66;8710588;33;20676;-78
2021/11/08 11:51:08;;;;;;;9.88;3.72;;;;;;;9.49;66.22;101050.31;8717051;33;20153;-74
2021/11/08 11:56:13;;;;;;;8.30;4.10;;;;;;;9.90;64.13;101044.03;8715338;33;20257;-75
2021/11/08 12:01:19;;;;;;;10.52;4.18;;;;;;;10.20;63.77;101050.94;8715371;33;20176;-74
2021/11/08 12:06:27;;;;;;;7.07;3.95;;;;;;;10.78;61.74;101040.63;8715178;33;20191;-75
2021/11/08 12:11:33;;;;;;;12.93;4.20;;;;;;;11.36;60.24;101027.50;8715790;33;20702;-74
2021/11/08 12:16:36;;;;;;;9.93;4.50;;;;;;;11.97;59.15;101044.38;8716652;33;20148;-76
2021/11/08 12:21:41;;;;;;;9.35;3.75;;;;;;;11.05;59.72;101035.06;8721730;33;20664;-76
2021/11/08 12:26:45;;;;;;;10.05;3.67;;;;;;;10.80;60.88;101034.16;8719213;33;20645;-77
2021/11/08 12:32:01;;;;;;;6.10;2.83;;;;;;;10.81;59.31;101014.38;8719904;33;20183;-76
2021/11/08 12:37:05;;;;;;;7.85;3.42;;;;;;;10.27;61.01;101014.66;8719255;33;21619;-77
2021/11/08 12:42:12;;;;;;;4.53;2.55;;;;;;;9.67;62.39;101015.16;8719060;33;21238;-76
2021/11/08 12:47:15;;;;;;;13.23;3.08;;;;;;;9.99;62.02;101014.84;8718930;33;20191;-76
2021/11/08 12:52:24;;;;;;;9.13;3.20;;;;;;;10.20;61.04;100999.91;8718524;33;20144;-76
2021/11/08 12:57:28;;;;;;;11.77;3.03;;;;;;;11.14;59.19;100998.63;8693487;33;20831;-75
2021/11/08 13:02:39;;;;;;;10.35;2.88;;;;;;;10.31;60.15;100991.13;8718460;33;20247;-76
2021/11/08 13:07:45;;;;;;;7.05;2.15;;;;;;;10.38;59.67;101005.84;8718536;33;20148;-76
2021/11/08 13:12:49;;;;;;;6.97;2.28;;;;;;;9.96;61.09;101007.00;8681649;33;20245;-75
2021/11/08 13:17:55;;;;;;;7.38;2.75;;;;;;;11.27;58.97;100988.66;8717832;33;20249;-77
2021/11/08 13:23:03;;;;;;;9.90;2.72;;;;;;;11.31;58.31;100998.25;8717742;33;20195;-75
2021/11/08 13:28:10;;;;;;;10.93;3.38;;;;;;;11.29;57.50;100997.50;8693541;33;20212;-77
2021/11/08 13:33:20;;;;;;;12.63;3.50;;;;;;;11.54;57.21;101001.88;8718686;33;20290;-77
2021/11/08 13:38:32;;;;;;;9.88;2.70;;;;;;;10.82;58.69;100999.13;8717675;33;20187;-76
2021/11/08 13:43:42;;;;;;;12.40;3.75;;;;;;;9.83;62.03;101015.84;8718249;33;20256;-76
2021/11/08 13:48:48;;;;;;;8.88;3.25;;;;;;;9.94;62.43;101017.84;8714549;33;20180;-77
2021/11/08 13:53:59;;;;;;;7.88;3.15;;;;;;;9.40;64.13;101032.13;8692993;33;20188;-76
2021/11/08 13:59:07;;;;;;;9.18;3.63;;;;;;;9.63;63.84;101033.31;8694646;33;20526;-77
2021/11/08 14:04:11;;;;;;;7.43;2.85;;;;;;;10.16;62.68;101041.38;8708368;33;20937;-75
2021/11/08 14:09:22;;;;;;;7.50;2.67;;;;;;;10.08;63.43;101041.06;8716845;33;20439;-75
2021/11/08 14:14:29;;;;;;;9.85;3.33;;;;;;;9.77;64.14;101028.84;8717948;33;20191;-76
2021/11/08 14:19:32;;;;;;;9.15;3.40;;;;;;;9.94;63.89;101039.31;8717637;33;20254;-76
2021/11/08 14:24:41;;;;;;;11.93;3.03;;;;;;;9.60;65.39;101036.19;8715528;33;20674;-75
2021/11/08 14:29:44;;;;;;;8.73;3.28;;;;;;;9.35;66.22;101042.31;8736167;33;20248;-76
2021/11/08 14:34:56;;;;;;;7.88;3.33;;;;;;;8.97;67.21;101034.94;8716277;33;20205;-77
2021/11/08 14:40:13;;;;;;;10.02;3.28;;;;;;;8.94;67.24;101043.19;8715547;33;20257;-75
2021/11/08 14:45:20;;;;;;;13.77;3.80;;;;;;;8.88;67.92;101046.22;8714402;33;20147;-75
2021/11/08 14:50:27;;;;;;;13.25;3.63;;;;;;;8.90;68.01;101041.63;8716586;33;20206;-75
2021/11/08 14:55:36;;;;;;;15.50;3.95;;;;;;;8.88;68.90;101048.91;8671617;33;20266;-76
2021/11/08 15:00:40;;;;;;;10.70;3.85;;;;;;;8.96;68.53;101049.28;8712362;33;20539;-76
2021/11/08 15:05:46;;;;;;;14.43;3.25;;;;;;;9.03;68.31;101063.16;8715375;33;20259;-75
2021/11/08 15:10:53;;;;;;;11.38;3.40;;;;;;;8.95;68.00;101071.69;8714932;33;21870;-76
2021/11/08 15:16:02;;;;;;;8.05;2.97;;;;;;;8.94;68.75;101077.13;8690251;33;20144;-75
2021/11/08 15:21:07;;;;;;;11.27;3.28;;;;;;;8.80;68.76;101083.34;8715330;33;20175;-76
2021/11/08 15:26:15;;;;;;;10.40;3.97;;;;;;;8.70;68.91;101090.25;8687030;33;20533;-75
2021/11/08 15:31:23;;;;;;;13.52;3.28;;;;;;;8.78;68.62;101091.50;8693844;33;20240;-75
2021/11/08 15:36:29;;;;;;;6.78;3.75;;;;;;;8.65;68.76;101109.28;8714206;33;20128;-75
2021/11/08 15:41:34;;;;;;;12.50;3.40;;;;;;;8.48;69.27;101107.63;8679180;33;20243;-75
2021/11/08 15:46:39;;;;;;;9.77;2.80;;;;;;;8.60;69.21;101114.91;8714222;33;20307;-75
2021/11/08 15:51:44;;;;;;;10.95;3.00;;;;;;;8.55;69.20;101116.16;8717446;33;20244;-76
2021/11/08 15:56:50;;;;;;;7.13;2.90;;;;;;;8.51;70.07;101112.81;8720069;33;20583;-76
2021/11/08 16:01:53;;;;;;;9.75;2.97;;;;;;;8.44;69.97;101124.81;8719384;33;20322;-76
2021/11/08 16:06:56;;;;;;;15.38;4.10;;;;;;;8.44;70.37;101118.59;8719519;33;20160;-77
2021/11/08 16:12:01;;;;;;;7.07;3.08;;;;;;;8.34;71.39;101121.84;8720215;33;20243;-76
2021/11/08 16:17:04;;;;;;;12.02;3.55;;;;;;;8.10;73.01;101117.94;8719039;33;20599;-75
2021/11/08 16:22:07;;;;;;;10.65;4.47;;;;;;;8.22;73.44;101127.91;8693324;33;20184;-76
2021/11/08 16:27:11;;;;;;;11.63;3.88;;;;;;;8.04;73.45;101121.84;8717253;33;20279;-76
2021/11/08 16:32:29;;;;;;;9.13;3.90;;;;;;;8.06;73.34;101135.09;8718005;33;20582;-75
2021/11/08 16:37:32;;;;;;;11.40;3.90;;;;;;;8.05;73.19;101134.25;8691270;33;20143;-75
2021/11/08 16:42:37;;;;;;;12.10;4.03;;;;;;;8.32;72.13;101141.63;8718452;33;20183;-76
2021/11/08 16:47:40;;;;;;;12.55;5.07;;;;;;;8.20;72.54;101145.00;8719184;33;20669;-76
2021/11/08 16:52:44;;;;;;;14.63;4.13;;;;;;;8.17;73.00;101156.75;8719782;33;20798;-76
2021/11/08 16:57:50;;;;;;;12.55;4.90;;;;;;;8.00;73.71;101172.94;8694868;33;20171;-76
2021/11/08 17:02:54;;;;;;;10.52;3.90;;;;;;;8.26;73.04;101174.09;8720612;33;20210;-76
2021/11/08 17:08:00;;;;;;;12.82;4.30;;;;;;;8.09;74.72;101180.41;8719153;33;20191;-75
2021/11/08 17:13:26;;;;;;;12.85;4.43;;;;;;;7.71;77.33;101195.06;8748010;33;20283;-74
2021/11/08 17:18:30;;;;;;;15.82;5.80;;;;;;;7.30;81.37;101194.69;8745242;33;20333;-75
2021/11/08 17:23:37;;;;;;;13.85;4.00;;;;;;;6.92;84.75;101208.28;8721103;33;20469;-76
2021/11/08 17:28:44;;;;;;;16.63;5.18;;;;;;;6.85;86.20;101217.50;8720957;33;21046;-76
2021/11/08 17:34:07;;;;;;;16.02;4.80;;;;;;;6.90;86.31;101217.31;8694489;33;20210;-76
2021/11/08 17:39:10;;;;;;;15.80;5.15;;;;;;;6.81;86.10;101219.47;8717837;33;20496;-75
2021/11/08 17:44:15;;;;;;;10.40;4.88;;;;;;;6.70;86.94;101212.97;8692404;33;20179;-75
2021/11/08 17:49:18;;;;;;;16.02;6.00;;;;;;;6.98;86.54;101210.63;8716786;33;20195;-76
2021/11/08 17:54:22;;;;;;;15.40;6.72;;;;;;;6.99;86.71;101222.16;8716697;33;20199;-75
2021/11/08 17:59:26;;;;;;;15.75;6.72;;;;;;;6.73;88.05;101235.03;8717364;33;20219;-76
2021/11/08 18:04:29;;;;;;;13.52;5.43;;;;;;;6.95;87.58;101236.63;8716425;33;20144;-77
2021/11/08 18:09:32;;;;;;;19.20;9.40;;;;;;;6.97;87.39;101246.28;8719937;33;20302;-76
2021/11/08 18:14:37;;;;;;;17.90;8.63;;;;;;;7.11;86.97;101253.59;8717164;33;20222;-76
2021/11/08 18:19:42;;;;;;;16.38;6.85;;;;;;;7.14;87.21;101258.75;8717219;33;20905;-77
2021/11/08 18:25:08;;;;;;;20.17;8.18;;;;;;;7.26;87.08;101255.44;8717321;33;20783;-76
2021/11/08 18:30:14;;;;;;;20.35;10.38;;;;;;;7.48;86.99;101263.16;8717391;33;20842;-75
2021/11/08 18:35:18;;;;;;;14.05;6.18;;;;;;;7.33;87.08;101263.13;8717960;33;20221;-77
2021/11/08 18:40:22;;;;;;;12.05;6.13;;;;;;;7.07;87.72;101276.06;8718992;33;20226;-76
2021/11/08 18:45:30;;;;;;;13.00;5.53;;;;;;;7.24;87.04;101286.75;8717597;33;20179;-76
2021/11/08 18:50:35;;;;;;;8.57;4.28;;;;;;;7.24;86.86;101283.16;8691393;33;20270;-76
2021/11/08 18:55:40;;;;;;;10.93;3.78;;;;;;;7.10;87.20;101291.06;8718706;33;20188;-76
2021/11/08 19:00:51;;;;;;;12.65;4.10;;;;;;;7.23;87.33;101290.34;8722618;33;20492;-75
2021/11/08 19:06:10;;;;;;;12.63;3.78;;;;;;;7.21;87.02;101294.03;8721225;33;20175;-76
2021/11/08 19:11:15;;;;;;;11.88;3.40;;;;;;;6.93;86.82;101290.13;8721503;33;22347;-75
2021/11/08 19:16:20;;;;;;;10.60;4.20;;;;;;;7.07;87.37;101302.75;8719043;33;20229;-75
2021/11/08 19:21:23;;;;;;;9.00;3.25;;;;;;;7.03;87.02;101293.19;8719361;33;20445;-76
2021/11/08 19:26:26;;;;;;;9.02;3.42;;;;;;;7.09;88.00;101308.03;8716764;33;20199;-76
2021/11/08 19:31:33;;;;;;;9.02;3.47;;;;;;;7.18;87.59;101310.22;8719027;33;21518;-76
2021/11/08 19:41:56;;;;;;;7.18;3.08;;;;;;;7.15;87.68;101318.41;8718533;33;20151;-74
2021/11/08 19:47:00;;;;;;;7.32;4.07;;;;;;;7.17;87.77;101312.03;8717988;33;20455;-75
2021/11/08 19:52:05;;;;;;;8.43;4.03;;;;;;;7.16;87.94;101329.03;8707296;33;20198;-75
2021/11/08 19:57:08;;;;;;;8.60;6.20;;;;;;;7.28;88.23;101325.69;8716918;33;20152;-76
2021/11/08 20:02:13;;;;;;;14.20;5.82;;;;;;;7.28;87.76;101333.72;8719674;33;20136;-75
2021/11/08 20:07:20;;;;;;;9.10;4.45;;;;;;;7.23;87.78;101325.06;8692186;33;20259;-74
2021/11/08 20:12:27;;;;;;;7.22;4.70;;;;;;;7.28;88.21;101336.41;8710286;33;20187;-75
2021/11/08 20:17:32;;;;;;;7.95;4.55;;;;;;;7.35;88.22;101338.75;8713398;33;20160;-75
2021/11/08 20:22:35;;;;;;;16.08;6.53;;;;;;;7.38;88.37;101330.59;8703324;33;20129;-75
2021/11/08 20:27:38;;;;;;;15.60;8.93;;;;;;;7.36;88.08;101346.69;8716907;33;20447;-75
2021/11/08 20:32:59;;;;;;;13.93;7.47;;;;;;;7.40;88.25;101350.91;8717360;33;20145;-74
2021/11/08 20:38:07;;;;;;;19.05;8.82;;;;;;;7.41;88.42;101341.97;8716623;33;20140;-75
2021/11/08 20:43:27;;;;;;;15.25;7.82;;;;;;;7.38;88.26;101352.84;8719855;33;20245;-75
2021/11/08 20:54:01;;;;;;;22.73;10.45;;;;;;;7.22;87.91;101359.91;8715344;33;20783;-74
2021/11/08 20:59:17;;;;;;;19.90;11.38;;;;;;;7.16;87.99;101361.09;8687819;33;20971;-75
2021/11/08 21:04:35;;;;;;;22.50;11.23;;;;;;;7.09;88.31;101364.16;8719995;33;20178;-74
2021/11/08 21:09:55;;;;;;;21.20;10.88;;;;;;;7.07;88.39;101372.22;8718923;33;20190;-74
2021/11/08 21:15:00;;;;;;;24.75;11.40;;;;;;;7.18;87.99;101372.56;8693365;33;21550;-75
2021/11/08 21:20:06;;;;;;;25.17;12.73;;;;;;;7.11;87.97;101364.94;8642413;33;20189;-75
2021/11/08 21:25:12;;;;;;;27.33;12.48;;;;;;;6.99;88.22;101371.75;8660916;33;20153;-75
2021/11/08 21:30:59;;;;;;;25.40;13.13;;;;;;;6.93;88.10;101374.75;8683005;33;20663;-74
2021/11/08 21:41:25;;;;;;;22.77;12.02;;;;;;;6.89;88.45;101389.22;8690619;33;20213;-74
2021/11/08 21:46:28;;;;;;;27.10;11.63;;;;;;;6.82;88.39;101389.47;8717887;33;20193;-75
2021/11/08 21:51:35;;;;;;;25.02;12.63;;;;;;;6.84;88.05;101379.56;8716922;33;20314;-75
2021/11/08 21:56:38;;;;;;;28.55;12.80;;;;;;;6.85;88.23;101391.97;8717675;33;20187;-75
2021/11/08 22:01:41;;;;;;;23.00;12.68;;;;;;;6.91;88.37;101390.88;8717766;33;20188;-75
2021/11/08 22:06:46;;;;;;;24.90;13.32;;;;;;;6.91;88.28;101384.63;8717391;33;20491;-76
2021/11/08 22:11:49;;;;;;;25.83;11.50;;;;;;;6.87;88.16;101378.59;8718084;33;20852;-74
2021/11/08 22:16:53;;;;;;;26.88;11.23;;;;;;;6.85;88.38;101375.94;8718645;33;20873;-75
2021/11/08 22:21:58;;;;;;;26.30;11.52;;;;;;;6.79;88.33;101381.59;8717831;33;20593;-75
2021/11/08 22:27:02;;;;;;;25.08;12.85;;;;;;;6.87;88.18;101386.59;8715779;33;20290;-75
2021/11/08 22:32:06;;;;;;;20.75;11.85;;;;;;;6.82;88.14;101386.78;8716265;33;20159;-75
2021/11/08 22:37:10;;;;;;;28.63;12.18;;;;;;;6.85;88.33;101393.78;8734852;33;20187;-76
2021/11/08 22:42:13;;;;;;;23.63;11.90;;;;;;;6.81;88.19;101395.75;8716201;33;20136;-74
2021/11/08 22:47:17;;;;;;;27.67;11.35;;;;;;;6.89;88.28;101390.06;8680140;33;20696;-74
2021/11/08 22:52:21;;;;;;;24.55;12.00;;;;;;;6.90;87.86;101404.28;8716378;33;21546;-73
2021/11/08 22:57:29;;;;;;;23.48;11.75;;;;;;;6.91;88.25;101398.88;8716167;33;20237;-73
2021/11/08 23:02:33;;;;;;;21.02;11.30;;;;;;;6.92;88.16;101389.91;8728470;33;20143;-74
2021/11/08 23:07:37;;;;;;;22.83;12.02;;;;;;;6.99;88.08;101398.47;8728441;33;20202;-74
2021/11/08 23:12:40;;;;;;;23.70;11.88;;;;;;;6.96;88.02;101401.31;8717201;33;20183;-73
2021/11/08 23:17:46;;;;;;;24.73;10.90;;;;;;;6.98;88.11;101397.63;8716048;33;20240;-73
2021/11/08 23:22:51;;;;;;;24.10;12.00;;;;;;;7.01;88.03;101386.78;8714638;33;20183;-73
2021/11/08 23:27:54;;;;;;;26.00;11.68;;;;;;;7.04;88.52;101391.97;8715260;33;21969;-75
2021/11/08 23:33:01;;;;;;;25.60;13.07;;;;;;;7.00;87.75;101401.09;8715004;33;20183;-73
2021/11/08 23:38:11;;;;;;;26.33;12.68;;;;;;;6.97;87.85;101400.38;8715390;33;20622;-74
2021/11/08 23:43:14;;;;;;;25.15;13.45;;;;;;;6.97;87.95;101408.41;8714395;33;20148;-73
2021/11/08 23:48:20;;;;;;;29.88;14.60;;;;;;;6.99;87.83;101406.47;8714232;33;20650;-74
2021/11/08 23:53:25;;;;;;;32.63;14.80;;;;;;;7.00;87.65;101403.75;8714548;33;20176;-74
2021/11/08 23:58:28;;;;;;;38.55;16.00;;;;;;;6.95;87.44;101411.13;8714286;33;20184;-73
